Terminal Aerodrome Forecast
Issued by NWS

Home | Current Version | Previous Version | Text Only | Print | Product List | Glossary On
Versions: 1 2 3 4 5 6 7 8 9 10 11 12
000
FTUS41 KPHI 291100
TAFPNE
TAF
KPNE 291123Z 2912/3012 35009KT P6SM SCT080 BKN150
     FM291600 36007KT P6SM SCT050 BKN250
     FM300200 01007KT P6SM OVC100=

USA.gov is the U.S. government's official web portal to all federal, state and local government web resources and services.